sensor_id;sensor_type;location;lat;lon;timestamp;pressure;altitude;pressure_sealevel;temperature;humidity
78719;BME280;68046;53.334;9.538;2023-12-29T00:02:19;100123.00;;;9.14;100.00
78719;BME280;68046;53.334;9.538;2023-12-29T00:04:44;100108.34;;;9.24;99.92
78719;BME280;68046;53.334;9.538;2023-12-29T00:07:10;100131.91;;;9.25;98.38
78719;BME280;68046;53.334;9.538;2023-12-29T00:09:35;100117.97;;;9.25;99.46
78719;BME280;68046;53.334;9.538;2023-12-29T00:12:01;100105.84;;;9.30;98.49
78719;BME280;68046;53.334;9.538;2023-12-29T00:14:28;100110.25;;;9.34;97.80
78719;BME280;68046;53.334;9.538;2023-12-29T00:16:53;100105.84;;;9.30;98.55
78719;BME280;68046;53.334;9.538;2023-12-29T00:19:19;100105.13;;;9.40;97.39
78719;BME280;68046;53.334;9.538;2023-12-29T00:21:44;100111.22;;;9.39;97.59
78719;BME280;68046;53.334;9.538;2023-12-29T00:24:10;100096.34;;;9.38;97.18
78719;BME280;68046;53.334;9.538;2023-12-29T00:26:35;100097.22;;;9.37;97.84
78719;BME280;68046;53.334;9.538;2023-12-29T00:29:02;100092.00;;;9.38;96.92
78719;BME280;68046;53.334;9.538;2023-12-29T00:31:28;100097.25;;;9.40;96.94
78719;BME280;68046;53.334;9.538;2023-12-29T00:33:54;100095.53;;;9.41;97.14
78719;BME280;68046;53.334;9.538;2023-12-29T00:36:20;100083.31;;;9.41;97.22
78719;BME280;68046;53.334;9.538;2023-12-29T00:38:45;100088.59;;;9.44;96.35
78719;BME280;68046;53.334;9.538;2023-12-29T00:41:11;100078.13;;;9.44;96.82
78719;BME280;68046;53.334;9.538;2023-12-29T00:43:37;100071.22;;;9.49;96.62
78719;BME280;68046;53.334;9.538;2023-12-29T00:46:02;100081.53;;;9.38;98.80
78719;BME280;68046;53.334;9.538;2023-12-29T00:48:30;100072.84;;;9.41;98.39
78719;BME280;68046;53.334;9.538;2023-12-29T00:50:56;100079.84;;;9.42;97.60
78719;BME280;68046;53.334;9.538;2023-12-29T00:53:22;100079.84;;;9.42;98.47
78719;BME280;68046;53.334;9.538;2023-12-29T00:55:47;100078.03;;;9.38;98.61
78719;BME280;68046;53.334;9.538;2023-12-29T00:58:13;100072.00;;;9.42;98.80
78719;BME280;68046;53.334;9.538;2023-12-29T01:00:38;100073.66;;;9.38;99.88
78719;BME280;68046;53.334;9.538;2023-12-29T01:03:04;100064.09;;;9.39;99.78
78719;BME280;68046;53.334;9.538;2023-12-29T01:05:31;100073.63;;;9.34;100.00
78719;BME280;68046;53.334;9.538;2023-12-29T01:07:56;100061.41;;;9.33;100.00
78719;BME280;68046;53.334;9.538;2023-12-29T01:10:22;100055.16;;;9.25;100.00
78719;BME280;68046;53.334;9.538;2023-12-29T01:12:47;100066.50;;;9.24;100.00
78719;BME280;68046;53.334;9.538;2023-12-29T01:15:14;100064.75;;;9.24;100.00
78719;BME280;68046;53.334;9.538;2023-12-29T01:17:39;100076.19;;;9.31;100.00
78719;BME280;68046;53.334;9.538;2023-12-29T01:20:05;100067.41;;;9.29;100.00
78719;BME280;68046;53.334;9.538;2023-12-29T01:22:32;100075.28;;;9.29;100.00
78719;BME280;68046;53.334;9.538;2023-12-29T01:24:58;100060.38;;;9.25;100.00
78719;BME280;68046;53.334;9.538;2023-12-29T01:27:24;100069.22;;;9.31;100.00
78719;BME280;68046;53.334;9.538;2023-12-29T01:29:50;100054.50;;;9.39;100.00
78719;BME280;68046;53.334;9.538;2023-12-29T01:32:15;100057.97;;;9.38;100.00
78719;BME280;68046;53.334;9.538;2023-12-29T01:34:41;100070.22;;;9.39;100.00
78719;BME280;68046;53.334;9.538;2023-12-29T01:37:06;100068.28;;;9.29;100.00
78719;BME280;68046;53.334;9.538;2023-12-29T01:39:34;100076.88;;;9.19;100.00
78719;BME280;68046;53.334;9.538;2023-12-29T01:41:59;100075.75;;;9.03;100.00
78719;BME280;68046;53.334;9.538;2023-12-29T01:44:25;100058.16;;;8.95;100.00
78719;BME280;68046;53.334;9.538;2023-12-29T01:46:52;100073.81;;;8.93;100.00
78719;BME280;68046;53.334;9.538;2023-12-29T01:49:19;100057.28;;;8.96;100.00
78719;BME280;68046;53.334;9.538;2023-12-29T01:51:49;100058.97;;;8.90;100.00
78719;BME280;68046;53.334;9.538;2023-12-29T01:54:15;100056.34;;;8.90;100.00
78719;BME280;68046;53.334;9.538;2023-12-29T01:56:43;100057.22;;;8.91;100.00
78719;BME280;68046;53.334;9.538;2023-12-29T01:59:08;100063.34;;;8.93;100.00
78719;BME280;68046;53.334;9.538;2023-12-29T02:01:35;100046.00;;;8.98;100.00
78719;BME280;68046;53.334;9.538;2023-12-29T02:04:03;100053.03;;;9.02;100.00
78719;BME280;68046;53.334;9.538;2023-12-29T02:06:28;100038.25;;;9.03;100.00
78719;BME280;68046;53.334;9.538;2023-12-29T02:08:57;100049.56;;;9.03;100.00
78719;BME280;68046;53.334;9.538;2023-12-29T02:11:24;100042.66;;;9.07;100.00
78719;BME280;68046;53.334;9.538;2023-12-29T02:13:51;100033.94;;;9.08;100.00
78719;BME280;68046;53.334;9.538;2023-12-29T02:16:22;100035.69;;;9.07;100.00
78719;BME280;68046;53.334;9.538;2023-12-29T02:18:50;100021.72;;;9.07;100.00
78719;BME280;68046;53.334;9.538;2023-12-29T02:21:16;100013.06;;;9.09;100.00
78719;BME280;68046;53.334;9.538;2023-12-29T02:23:41;100004.22;;;9.03;100.00
78719;BME280;68046;53.334;9.538;2023-12-29T02:26:13;100012.13;;;9.06;100.00
78719;BME280;68046;53.334;9.538;2023-12-29T02:28:44;100018.13;;;9.00;100.00
78719;BME280;68046;53.334;9.538;2023-12-29T02:31:17;100011.22;;;9.05;100.00
78719;BME280;68046;53.334;9.538;2023-12-29T02:33:44;100009.41;;;9.01;100.00
78719;BME280;68046;53.334;9.538;2023-12-29T02:36:12;100011.06;;;8.96;100.00
78719;BME280;68046;53.334;9.538;2023-12-29T02:38:39;100008.50;;;8.98;100.00
78719;BME280;68046;53.334;9.538;2023-12-29T02:41:05;100006.75;;;8.97;100.00
78719;BME280;68046;53.334;9.538;2023-12-29T02:43:32;100010.97;;;8.88;100.00
78719;BME280;68046;53.334;9.538;2023-12-29T02:45:58;100012.50;;;8.76;100.00
78719;BME280;68046;53.334;9.538;2023-12-29T02:48:24;99994.81;;;8.61;100.00
78719;BME280;68046;53.334;9.538;2023-12-29T02:50:50;100001.53;;;8.48;100.00
78719;BME280;68046;53.334;9.538;2023-12-29T02:53:15;99993.44;;;8.36;100.00
78719;BME280;68046;53.334;9.538;2023-12-29T02:55:41;99991.72;;;8.36;100.00
78719;BME280;68046;53.334;9.538;2023-12-29T02:58:06;99987.28;;;8.31;100.00
78719;BME280;68046;53.334;9.538;2023-12-29T03:00:33;99999.31;;;8.24;100.00
78719;BME280;68046;53.334;9.538;2023-12-29T03:02:59;100008.00;;;8.21;100.00
78719;BME280;68046;53.334;9.538;2023-12-29T03:05:24;99984.41;;;8.17;100.00
78719;BME280;68046;53.334;9.538;2023-12-29T03:07:50;99967.78;;;8.13;100.00
78719;BME280;68046;53.334;9.538;2023-12-29T03:10:15;99965.13;;;8.12;100.00
78719;BME280;68046;53.334;9.538;2023-12-29T03:12:41;99967.75;;;8.12;100.00
78719;BME280;68046;53.334;9.538;2023-12-29T03:15:07;99952.94;;;8.11;100.00
78719;BME280;68046;53.334;9.538;2023-12-29T03:17:34;99939.00;;;8.12;100.00
78719;BME280;68046;53.334;9.538;2023-12-29T03:19:59;99938.13;;;8.11;100.00
78719;BME280;68046;53.334;9.538;2023-12-29T03:22:25;99932.97;;;8.13;100.00
78719;BME280;68046;53.334;9.538;2023-12-29T03:24:50;99942.47;;;8.11;100.00
78719;BME280;68046;53.334;9.538;2023-12-29T03:27:16;99941.63;;;8.10;100.00
78719;BME280;68046;53.334;9.538;2023-12-29T03:29:41;99925.94;;;8.10;100.00
78719;BME280;68046;53.334;9.538;2023-12-29T03:32:07;99927.75;;;8.14;100.00
78719;BME280;68046;53.334;9.538;2023-12-29T03:34:34;99927.75;;;8.14;100.00
78719;BME280;68046;53.334;9.538;2023-12-29T03:36:59;99939.91;;;8.12;100.00
78719;BME280;68046;53.334;9.538;2023-12-29T03:39:25;99946.94;;;8.16;100.00
78719;BME280;68046;53.334;9.538;2023-12-29T03:41:50;99951.34;;;8.19;100.00
78719;BME280;68046;53.334;9.538;2023-12-29T03:44:16;99963.56;;;8.20;100.00
78719;BME280;68046;53.334;9.538;2023-12-29T03:46:43;99952.06;;;8.10;100.00
78719;BME280;68046;53.334;9.538;2023-12-29T03:49:09;99947.66;;;8.08;100.00
78719;BME280;68046;53.334;9.538;2023-12-29T03:51:37;99945.84;;;8.05;100.00
78719;BME280;68046;53.334;9.538;2023-12-29T03:54:02;99952.88;;;8.08;100.00
78719;BME280;68046;53.334;9.538;2023-12-29T03:56:28;99954.63;;;8.09;100.00
78719;BME280;68046;53.334;9.538;2023-12-29T03:58:54;99995.47;;;8.05;100.00
78719;BME280;68046;53.334;9.538;2023-12-29T04:01:19;100039.88;;;8.04;100.00
78719;BME280;68046;53.334;9.538;2023-12-29T04:03:45;100055.56;;;7.26;100.00
78719;BME280;68046;53.334;9.538;2023-12-29T04:06:12;100059.22;;;6.63;100.00
78719;BME280;68046;53.334;9.538;2023-12-29T04:08:39;100063.06;;;6.45;100.00
78719;BME280;68046;53.334;9.538;2023-12-29T04:11:05;100068.13;;;6.40;100.00
78719;BME280;68046;53.334;9.538;2023-12-29T04:13:30;100048.00;;;6.34;100.00
78719;BME280;68046;53.334;9.538;2023-12-29T04:15:56;100024.41;;;6.28;100.00
78719;BME280;68046;53.334;9.538;2023-12-29T04:18:23;100022.72;;;6.30;100.00
78719;BME280;68046;53.334;9.538;2023-12-29T04:20:48;100039.38;;;6.35;100.00
78719;BME280;68046;53.334;9.538;2023-12-29T04:23:14;100034.72;;;6.25;100.00
78719;BME280;68046;53.334;9.538;2023-12-29T04:25:41;100038.97;;;6.22;100.00
78719;BME280;68046;53.334;9.538;2023-12-29T04:28:07;100019.03;;;6.22;100.00
78719;BME280;68046;53.334;9.538;2023-12-29T04:30:33;100013.66;;;6.16;100.00
78719;BME280;68046;53.334;9.538;2023-12-29T04:32:58;100019.72;;;6.15;100.00
78719;BME280;68046;53.334;9.538;2023-12-29T04:35:24;100027.59;;;6.18;100.00
78719;BME280;68046;53.334;9.538;2023-12-29T04:37:50;100018.84;;;6.16;100.00
78719;BME280;68046;53.334;9.538;2023-12-29T04:40:15;100034.41;;;6.13;100.00
78719;BME280;68046;53.334;9.538;2023-12-29T04:42:42;100014.59;;;6.18;100.00
78719;BME280;68046;53.334;9.538;2023-12-29T04:45:08;100008.44;;;6.16;100.00
78719;BME280;68046;53.334;9.538;2023-12-29T04:47:34;99992.91;;;6.19;100.00
78719;BME280;68046;53.334;9.538;2023-12-29T04:49:59;99992.00;;;6.17;100.00
78719;BME280;68046;53.334;9.538;2023-12-29T04:52:25;99977.41;;;6.24;100.00
78719;BME280;68046;53.334;9.538;2023-12-29T04:54:50;99978.50;;;6.32;100.00
78719;BME280;68046;53.334;9.538;2023-12-29T04:57:16;99981.38;;;6.43;100.00
78719;BME280;68046;53.334;9.538;2023-12-29T04:59:43;99962.34;;;6.47;100.00
78719;BME280;68046;53.334;9.538;2023-12-29T05:02:08;99958.84;;;6.45;100.00
78719;BME280;68046;53.334;9.538;2023-12-29T05:04:34;99982.47;;;6.52;100.00
78719;BME280;68046;53.334;9.538;2023-12-29T05:06:59;99994.75;;;6.56;100.00
78719;BME280;68046;53.334;9.538;2023-12-29T05:09:25;99962.78;;;6.62;100.00
78719;BME280;68046;53.334;9.538;2023-12-29T05:11:50;99955.19;;;6.71;100.00
78719;BME280;68046;53.334;9.538;2023-12-29T05:14:16;99955.06;;;6.67;100.00
78719;BME280;68046;53.334;9.538;2023-12-29T05:16:43;99970.84;;;6.73;100.00
78719;BME280;68046;53.334;9.538;2023-12-29T05:19:08;99956.22;;;6.79;100.00
78719;BME280;68046;53.334;9.538;2023-12-29T05:21:34;99956.38;;;6.85;100.00
78719;BME280;68046;53.334;9.538;2023-12-29T05:23:59;99960.91;;;6.94;100.00
78719;BME280;68046;53.334;9.538;2023-12-29T05:26:25;99972.44;;;7.04;100.00
78719;BME280;68046;53.334;9.538;2023-12-29T05:28:50;99962.09;;;7.07;100.00
78719;BME280;68046;53.334;9.538;2023-12-29T05:31:16;99966.47;;;7.08;100.00
78719;BME280;68046;53.334;9.538;2023-12-29T05:33:43;99957.03;;;7.13;100.00
78719;BME280;68046;53.334;9.538;2023-12-29T05:36:10;99960.50;;;7.14;100.00
78719;BME280;68046;53.334;9.538;2023-12-29T05:38:36;99956.19;;;7.16;100.00
78719;BME280;68046;53.334;9.538;2023-12-29T05:41:02;99956.25;;;7.17;100.00
78719;BME280;68046;53.334;9.538;2023-12-29T05:43:28;99955.38;;;7.18;100.00
78719;BME280;68046;53.334;9.538;2023-12-29T05:45:53;99958.03;;;7.20;100.00
78719;BME280;68046;53.334;9.538;2023-12-29T05:48:19;99953.69;;;7.20;100.00
78719;BME280;68046;53.334;9.538;2023-12-29T05:50:46;99970.16;;;7.18;100.00
78719;BME280;68046;53.334;9.538;2023-12-29T05:53:11;99961.41;;;7.16;100.00
78719;BME280;68046;53.334;9.538;2023-12-29T05:55:37;99964.66;;;7.05;100.00
78719;BME280;68046;53.334;9.538;2023-12-29T05:58:03;99964.47;;;6.98;100.00
78719;BME280;68046;53.334;9.538;2023-12-29T06:00:28;99962.84;;;7.01;100.00
78719;BME280;68046;53.334;9.538;2023-12-29T06:02:54;99968.22;;;7.09;100.00
78719;BME280;68046;53.334;9.538;2023-12-29T06:05:19;99988.47;;;7.19;100.00
78719;BME280;68046;53.334;9.538;2023-12-29T06:07:46;99997.97;;;7.17;100.00
78719;BME280;68046;53.334;9.538;2023-12-29T06:10:12;100021.47;;;7.19;100.00
78719;BME280;68046;53.334;9.538;2023-12-29T06:12:37;100007.47;;;7.15;100.00
78719;BME280;68046;53.334;9.538;2023-12-29T06:15:03;99990.22;;;7.20;100.00
78719;BME280;68046;53.334;9.538;2023-12-29T06:17:29;99987.75;;;7.28;100.00
78719;BME280;68046;53.334;9.538;2023-12-29T06:19:54;99995.81;;;7.37;100.00
78719;BME280;68046;53.334;9.538;2023-12-29T06:22:20;99999.31;;;7.39;100.00
78719;BME280;68046;53.334;9.538;2023-12-29T06:24:46;100002.88;;;7.41;100.00
78719;BME280;68046;53.334;9.538;2023-12-29T06:27:12;99991.63;;;7.45;100.00
78719;BME280;68046;53.334;9.538;2023-12-29T06:29:37;100006.19;;;7.34;100.00
78719;BME280;68046;53.334;9.538;2023-12-29T06:32:04;100004.47;;;7.35;100.00
78719;BME280;68046;53.334;9.538;2023-12-29T06:34:29;100004.47;;;7.35;100.00
78719;BME280;68046;53.334;9.538;2023-12-29T06:36:55;100001.06;;;7.39;100.00
78719;BME280;68046;53.334;9.538;2023-12-29T06:39:21;99997.59;;;7.40;100.00
78719;BME280;68046;53.334;9.538;2023-12-29T06:41:48;100000.34;;;7.46;100.00
78719;BME280;68046;53.334;9.538;2023-12-29T06:44:13;99998.72;;;7.51;100.00
78719;BME280;68046;53.334;9.538;2023-12-29T06:46:39;99991.03;;;7.57;100.00
78719;BME280;68046;53.334;9.538;2023-12-29T06:49:07;99997.16;;;7.59;100.00
78719;BME280;68046;53.334;9.538;2023-12-29T06:51:33;100002.50;;;7.65;100.00
78719;BME280;68046;53.334;9.538;2023-12-29T06:53:59;100007.00;;;7.72;100.00
78719;BME280;68046;53.334;9.538;2023-12-29T06:56:24;100006.38;;;7.84;100.00
78719;BME280;68046;53.334;9.538;2023-12-29T06:58:51;99992.41;;;7.82;100.00
78719;BME280;68046;53.334;9.538;2023-12-29T07:01:17;100001.97;;;7.82;100.00
78719;BME280;68046;53.334;9.538;2023-12-29T07:03:42;100000.28;;;7.84;100.00
78719;BME280;68046;53.334;9.538;2023-12-29T07:06:08;99998.59;;;7.87;100.00
78719;BME280;68046;53.334;9.538;2023-12-29T07:08:34;100009.06;;;7.87;100.00
78719;BME280;68046;53.334;9.538;2023-12-29T07:11:00;100001.28;;;7.89;100.00
78719;BME280;68046;53.334;9.538;2023-12-29T07:13:25;99996.94;;;7.91;100.00
78719;BME280;68046;53.334;9.538;2023-12-29T07:15:52;99993.56;;;7.95;100.00
78719;BME280;68046;53.334;9.538;2023-12-29T07:18:18;100001.34;;;7.93;100.00
78719;BME280;68046;53.334;9.538;2023-12-29T07:20:43;99993.56;;;7.95;100.00
78719;BME280;68046;53.334;9.538;2023-12-29T07:23:09;99999.53;;;7.89;100.00
78719;BME280;68046;53.334;9.538;2023-12-29T07:25:34;100008.25;;;7.90;100.00
78719;BME280;68046;53.334;9.538;2023-12-29T07:28:00;100002.16;;;7.91;100.00
78719;BME280;68046;53.334;9.538;2023-12-29T07:30:25;100013.56;;;7.94;100.00
78719;BME280;68046;53.334;9.538;2023-12-29T07:32:52;100001.34;;;7.93;100.00
78719;BME280;68046;53.334;9.538;2023-12-29T07:35:18;100002.22;;;7.94;100.00
78719;BME280;68046;53.334;9.538;2023-12-29T07:37:43;100003.19;;;7.97;100.00
78719;BME280;68046;53.334;9.538;2023-12-29T07:40:10;100010.97;;;7.94;100.00
78719;BME280;68046;53.334;9.538;2023-12-29T07:42:36;100010.13;;;7.97;100.00
78719;BME280;68046;53.334;9.538;2023-12-29T07:45:02;100013.69;;;8.00;100.00
78719;BME280;68046;53.334;9.538;2023-12-29T07:47:28;100006.56;;;7.92;100.00
78719;BME280;68046;53.334;9.538;2023-12-29T07:49:54;100010.09;;;7.95;100.00
78719;BME280;68046;53.334;9.538;2023-12-29T07:52:20;100004.94;;;7.98;100.00
78719;BME280;68046;53.334;9.538;2023-12-29T07:54:45;100009.28;;;7.98;100.00
78719;BME280;68046;53.334;9.538;2023-12-29T07:57:11;100005.81;;;7.99;100.00
78719;BME280;68046;53.334;9.538;2023-12-29T07:59:36;99991.94;;;8.03;100.00
78719;BME280;68046;53.334;9.538;2023-12-29T08:02:02;99992.81;;;8.02;100.00
78719;BME280;68046;53.334;9.538;2023-12-29T08:04:27;100013.78;;;8.05;100.00
78719;BME280;68046;53.334;9.538;2023-12-29T08:06:54;100006.88;;;8.09;100.00
78719;BME280;68046;53.334;9.538;2023-12-29T08:09:20;100011.22;;;8.08;100.00
78719;BME280;68046;53.334;9.538;2023-12-29T08:11:45;99994.69;;;8.09;100.00
78719;BME280;68046;53.334;9.538;2023-12-29T08:14:11;100010.44;;;8.12;100.00
78719;BME280;68046;53.334;9.538;2023-12-29T08:16:38;99999.19;;;8.16;100.00
78719;BME280;68046;53.334;9.538;2023-12-29T08:19:03;100004.38;;;8.13;100.00
78719;BME280;68046;53.334;9.538;2023-12-29T08:21:29;100006.94;;;8.12;100.00
78719;BME280;68046;53.334;9.538;2023-12-29T08:23:55;100014.00;;;8.16;100.00
78719;BME280;68046;53.334;9.538;2023-12-29T08:26:21;99993.09;;;8.17;100.00
78719;BME280;68046;53.334;9.538;2023-12-29T08:28:46;100003.50;;;8.14;100.00
78719;BME280;68046;53.334;9.538;2023-12-29T08:31:13;99999.13;;;8.13;100.00
78719;BME280;68046;53.334;9.538;2023-12-29T08:33:38;99996.41;;;8.09;100.00
78719;BME280;68046;53.334;9.538;2023-12-29T08:36:04;99996.47;;;8.12;100.00
78719;BME280;68046;53.334;9.538;2023-12-29T08:38:30;99995.59;;;8.11;100.00
78719;BME280;68046;53.334;9.538;2023-12-29T08:40:57;100019.16;;;8.14;100.00
78719;BME280;68046;53.334;9.538;2023-12-29T08:43:23;100000.88;;;8.14;100.00
78719;BME280;68046;53.334;9.538;2023-12-29T08:45:48;100006.09;;;8.14;100.00
78719;BME280;68046;53.334;9.538;2023-12-29T08:48:14;100006.16;;;8.17;100.00
78719;BME280;68046;53.334;9.538;2023-12-29T08:50:39;100008.81;;;8.19;100.00
78719;BME280;68046;53.334;9.538;2023-12-29T08:53:05;100005.44;;;8.24;100.00
78719;BME280;68046;53.334;9.538;2023-12-29T08:55:30;100003.78;;;8.28;100.00
78719;BME280;68046;53.334;9.538;2023-12-29T08:57:57;100013.38;;;8.29;100.00
78719;BME280;68046;53.334;9.538;2023-12-29T09:00:23;100017.84;;;8.36;100.00
78719;BME280;68046;53.334;9.538;2023-12-29T09:02:48;100011.69;;;8.33;100.00
78719;BME280;68046;53.334;9.538;2023-12-29T09:05:14;100012.50;;;8.30;100.00
78719;BME280;68046;53.334;9.538;2023-12-29T09:07:39;100010.47;;;8.14;100.00
78719;BME280;68046;53.334;9.538;2023-12-29T09:10:06;100033.00;;;8.09;100.00
78719;BME280;68046;53.334;9.538;2023-12-29T09:12:31;100035.41;;;7.98;100.00
78719;BME280;68046;53.334;9.538;2023-12-29T09:14:58;100054.44;;;7.94;100.00
78719;BME280;68046;53.334;9.538;2023-12-29T09:17:24;100061.69;;;7.65;100.00
78719;BME280;68046;53.334;9.538;2023-12-29T09:19:49;100076.22;;;7.19;100.00
78719;BME280;68046;53.334;9.538;2023-12-29T09:22:15;100060.63;;;6.85;100.00
78719;BME280;68046;53.334;9.538;2023-12-29T09:24:41;100076.69;;;6.68;100.00
78719;BME280;68046;53.334;9.538;2023-12-29T09:27:07;100066.72;;;6.53;100.00
78719;BME280;68046;53.334;9.538;2023-12-29T09:29:32;100053.38;;;6.40;100.00
78719;BME280;68046;53.334;9.538;2023-12-29T09:31:59;100063.97;;;6.15;100.00
78719;BME280;68046;53.334;9.538;2023-12-29T09:34:25;100066.34;;;6.07;100.00
78719;BME280;68046;53.334;9.538;2023-12-29T09:36:50;100045.41;;;6.03;100.00
78719;BME280;68046;53.334;9.538;2023-12-29T09:39:16;100057.81;;;6.11;100.00
78719;BME280;68046;53.334;9.538;2023-12-29T09:41:44;100058.75;;;6.15;100.00
78719;BME280;68046;53.334;9.538;2023-12-29T09:44:13;100072.56;;;6.12;100.00
78719;BME280;68046;53.334;9.538;2023-12-29T09:46:41;100063.00;;;6.11;100.00
78719;BME280;68046;53.334;9.538;2023-12-29T09:49:09;100055.13;;;6.10;100.00
78719;BME280;68046;53.334;9.538;2023-12-29T09:51:34;100053.47;;;6.12;100.00
78719;BME280;68046;53.334;9.538;2023-12-29T09:54:01;100044.16;;;6.20;100.00
78719;BME280;68046;53.334;9.538;2023-12-29T09:56:28;100050.53;;;6.31;100.00
78719;BME280;68046;53.334;9.538;2023-12-29T09:58:54;100033.13;;;6.62;100.00
78719;BME280;68046;53.334;9.538;2023-12-29T10:01:20;100038.19;;;6.91;100.00
78719;BME280;68046;53.334;9.538;2023-12-29T10:03:47;100025.38;;;7.00;100.00
78719;BME280;68046;53.334;9.538;2023-12-29T10:06:18;100035.34;;;7.18;100.00
78719;BME280;68046;53.334;9.538;2023-12-29T10:08:45;100051.50;;;7.38;100.00
78719;BME280;68046;53.334;9.538;2023-12-29T10:11:13;100037.78;;;7.48;100.00
78719;BME280;68046;53.334;9.538;2023-12-29T10:13:42;100029.22;;;7.53;100.00
78719;BME280;68046;53.334;9.538;2023-12-29T10:16:24;100037.25;;;7.61;100.00
78719;BME280;68046;53.334;9.538;2023-12-29T10:19:00;100033.84;;;7.67;100.00
78719;BME280;68046;53.334;9.538;2023-12-29T10:21:33;100032.22;;;7.70;100.00
78719;BME280;68046;53.334;9.538;2023-12-29T10:24:05;100026.13;;;7.71;100.00
78719;BME280;68046;53.334;9.538;2023-12-29T10:26:32;100034.97;;;7.78;100.00
78719;BME280;68046;53.334;9.538;2023-12-29T10:28:58;100038.50;;;7.80;100.00
78719;BME280;68046;53.334;9.538;2023-12-29T10:31:24;100040.25;;;7.79;100.00
78719;BME280;68046;53.334;9.538;2023-12-29T10:33:50;100026.31;;;7.81;100.00
78719;BME280;68046;53.334;9.538;2023-12-29T10:36:16;100028.06;;;7.82;100.00
78719;BME280;68046;53.334;9.538;2023-12-29T10:38:43;100039.34;;;7.79;100.00
78719;BME280;68046;53.334;9.538;2023-12-29T10:41:12;100029.81;;;7.81;100.00
78719;BME280;68046;53.334;9.538;2023-12-29T10:43:38;100029.69;;;7.75;100.00
78719;BME280;68046;53.334;9.538;2023-12-29T10:46:06;100020.16;;;7.77;100.00
78719;BME280;68046;53.334;9.538;2023-12-29T10:48:31;100031.44;;;7.76;100.00
78719;BME280;68046;53.334;9.538;2023-12-29T10:50:57;100024.53;;;7.78;100.00
78719;BME280;68046;53.334;9.538;2023-12-29T10:53:23;100026.25;;;7.77;100.00
78719;BME280;68046;53.334;9.538;2023-12-29T10:55:50;100021.09;;;7.81;100.00
78719;BME280;68046;53.334;9.538;2023-12-29T10:58:16;100015.91;;;7.82;100.00
78719;BME280;68046;53.334;9.538;2023-12-29T11:00:41;100019.41;;;7.83;100.00
78719;BME280;68046;53.334;9.538;2023-12-29T11:03:07;100020.25;;;7.82;100.00
78719;BME280;68046;53.334;9.538;2023-12-29T11:05:32;100017.69;;;7.83;100.00
78719;BME280;68046;53.334;9.538;2023-12-29T11:07:58;100002.97;;;7.87;100.00
78719;BME280;68046;53.334;9.538;2023-12-29T11:10:23;100013.56;;;7.94;100.00
78719;BME280;68046;53.334;9.538;2023-12-29T11:12:52;100010.00;;;7.91;100.00
78719;BME280;68046;53.334;9.538;2023-12-29T11:15:17;100019.66;;;7.95;100.00
78719;BME280;68046;53.334;9.538;2023-12-29T11:17:43;100011.84;;;7.95;100.00
78719;BME280;68046;53.334;9.538;2023-12-29T11:20:10;100022.22;;;7.92;100.00
78719;BME280;68046;53.334;9.538;2023-12-29T11:22:36;100022.22;;;7.92;100.00
78719;BME280;68046;53.334;9.538;2023-12-29T11:25:04;100012.53;;;7.88;100.00
78719;BME280;68046;53.334;9.538;2023-12-29T11:27:30;100008.25;;;7.90;100.00
78719;BME280;68046;53.334;9.538;2023-12-29T11:29:58;100012.47;;;7.85;100.00
78719;BME280;68046;53.334;9.538;2023-12-29T11:32:30;100003.75;;;7.83;100.00
78719;BME280;68046;53.334;9.538;2023-12-29T11:35:10;99999.41;;;7.83;100.00
78719;BME280;68046;53.334;9.538;2023-12-29T11:37:47;100015.00;;;7.80;100.00
78719;BME280;68046;53.334;9.538;2023-12-29T11:40:20;100012.28;;;7.75;100.00
78719;BME280;68046;53.334;9.538;2023-12-29T11:42:49;100003.69;;;7.79;100.00
78719;BME280;68046;53.334;9.538;2023-12-29T11:45:28;100007.94;;;7.76;100.00
78719;BME280;68046;53.334;9.538;2023-12-29T11:47:54;100014.91;;;7.75;100.00
78719;BME280;68046;53.334;9.538;2023-12-29T11:50:27;99994.94;;;7.77;100.00
78719;BME280;68046;53.334;9.538;2023-12-29T11:52:53;100014.94;;;7.77;100.00
78719;BME280;68046;53.334;9.538;2023-12-29T11:55:18;100000.22;;;7.81;100.00
78719;BME280;68046;53.334;9.538;2023-12-29T11:57:44;100008.97;;;7.83;100.00
78719;BME280;68046;53.334;9.538;2023-12-29T12:00:10;100001.16;;;7.84;100.00
78719;BME280;68046;53.334;9.538;2023-12-29T12:02:41;99992.50;;;7.85;100.00
78719;BME280;68046;53.334;9.538;2023-12-29T12:05:08;99994.25;;;7.88;100.00
78719;BME280;68046;53.334;9.538;2023-12-29T12:07:58;99995.13;;;7.87;100.00
78719;BME280;68046;53.334;9.538;2023-12-29T12:10:30;99998.59;;;7.86;100.00
78719;BME280;68046;53.334;9.538;2023-12-29T12:12:56;100001.16;;;7.84;100.00
78719;BME280;68046;53.334;9.538;2023-12-29T12:15:32;99994.13;;;7.82;100.00
78719;BME280;68046;53.334;9.538;2023-12-29T12:18:00;100002.78;;;7.79;100.00
78719;BME280;68046;53.334;9.538;2023-12-29T12:20:26;99994.00;;;7.74;100.00
78719;BME280;68046;53.334;9.538;2023-12-29T12:22:57;99986.19;;;7.75;100.00
78719;BME280;68046;53.334;9.538;2023-12-29T12:25:25;99990.41;;;7.69;100.00
78719;BME280;68046;53.334;9.538;2023-12-29T12:27:51;99972.88;;;7.63;100.00
78719;BME280;68046;53.334;9.538;2023-12-29T12:30:18;99972.88;;;7.62;100.00
78719;BME280;68046;53.334;9.538;2023-12-29T12:32:44;99965.81;;;7.57;100.00
78719;BME280;68046;53.334;9.538;2023-12-29T12:35:15;99965.84;;;7.61;100.00
78719;BME280;68046;53.334;9.538;2023-12-29T12:37:40;99971.00;;;7.57;100.00
78719;BME280;68046;53.334;9.538;2023-12-29T12:40:07;99967.53;;;7.57;100.00
78719;BME280;68046;53.334;9.538;2023-12-29T12:42:38;99970.41;;;7.69;100.00
78719;BME280;68046;53.334;9.538;2023-12-29T12:45:09;99958.19;;;7.68;100.00
78719;BME280;68046;53.334;9.538;2023-12-29T12:47:37;99967.97;;;7.77;100.00
78719;BME280;68046;53.334;9.538;2023-12-29T12:50:04;99967.34;;;7.90;100.00
78719;BME280;68046;53.334;9.538;2023-12-29T12:52:32;99963.91;;;7.93;100.00